Latest Coastal Weather Observations for Port Lincoln Airport

IDS60701

Issued at 11:01 pm CST Wednesday 4 May 2016 (issued every 10 minutes, with the page automatically refreshed every 10 minutes)

About coastal observations | Map of coastal stations | Coastal observations for SA | Marine services | Other Formats
Station Details ID: 018192 Name: PORT LINCOLN AWS Lat: -34.60 Lon: 135.88 Height: 8.5 m
Data from the previous 72 hours. | See also: Recent months at Port Lincoln Airport
Date/Time
CST
Temp

°C
Wind Pressure Rain
since 9am
mm
Weather Cloud Vis
km
Sea
Height
m
Swell
Dir
 
Speed
knots
Gust
knots
hPa Trend Height
m
Period
s
Dir
04/11:00pm 15.3 NNW 10 14 1014.7 - 0.0 - Partly cloudy 10 - - - -
04/10:30pm 14.9 NNW 9 14 1014.9 - 0.0 - - 10 - - - -
04/10:00pm 15.1 NNW 9 13 1015.1 - 0.0 - Partly cloudy 10 - - - -
04/09:30pm 14.6 NNW 10 13 1015.2 - 0.0 - - 10 - - - -
04/09:00pm 15.1 NW 14 20 1015.2 - 0.0 - - 10 - - - -
04/08:30pm 14.9 NNW 9 14 1015.0 - 0.0 - - 10 - - - -
04/08:00pm 15.2 NW 9 11 1015.0 - 0.0 - - 10 - - - -
04/07:30pm 15.3 NW 9 13 1014.9 - 0.0 - - 10 - - - -
04/07:00pm 15.2 NW 10 14 1014.9 - 0.0 - - 10 - - - -
04/06:30pm 15.5 NW 13 19 1014.8 - 0.0 - Partly cloudy 9 - - - -
04/06:19pm 15.4 NW 14 19 1014.5 - 0.0 - Partly cloudy 10 - - - -
04/06:08pm 15.3 NW 17 23 1014.5 - 0.0 - Partly cloudy 5 - - - -
04/06:00pm 15.8 NW 15 23 1014.5 - 0.0 - Partly cloudy 10 - - - -
04/05:30pm 16.5 NW 11 17 1014.5 - 0.0 - Cloudy 10 - - - -
04/05:00pm 17.1 NW 13 18 1014.4 - 0.0 - - 10 - - - -
04/04:30pm 18.3 NW 15 21 1014.1 - 0.0 - Partly cloudy 10 - - - -
04/04:00pm 18.8 NW 17 23 1014.0 - 0.0 - - 10 - - - -
04/03:30pm 19.3 NW 16 20 1014.0 - 0.0 - Partly cloudy 10 - - - -
04/03:00pm 19.0 WNW 16 21 1014.1 - 0.0 - Mostly cloudy 10 - - - -
04/02:30pm 19.3 NW 15 21 1014.4 - 0.0 - Partly cloudy 10 - - - -
04/02:00pm 19.4 WNW 14 19 1014.5 - 0.0 - Partly cloudy 10 - - - -
04/01:30pm 19.7 NW 15 22 1014.8 - 0.0 - Partly cloudy 10 - - - -
04/01:00pm 17.9 NW 13 18 1015.1 - 0.0 - Partly cloudy 10 - - - -
04/12:30pm 18.7 NW 14 20 1015.6 - 0.0 - Partly cloudy 10 - - - -
04/12:00pm 18.1 NNW 13 19 1015.9 - 0.0 - Cloudy 10 - - - -
04/11:30am 19.4 NW 12 17 1016.3 - 0.0 - Partly cloudy 10 - - - -
04/11:00am 17.1 NNW 9 12 1016.7 - 0.0 - Partly cloudy 10 - - - -
04/10:30am 17.4 NNW 10 14 1016.8 - 0.0 - Partly cloudy 10 - - - -
04/10:00am 15.9 NNW 9 13 1016.8 - 0.0 - Cloudy 10 - - - -
04/09:30am 15.5 NNW 10 13 1016.9 - 0.0 - Partly cloudy 10 - - - -
04/09:00am 14.9 NNW 8 11 1017.0 - 1.0 - Mostly clear 10 - - - -
04/08:30am 13.8 NW 6 9 1016.8 - 1.0 - Partly cloudy 10 - - - -
04/08:00am 12.7 NW 6 8 1016.6 - 1.0 - Cloudy 10 - - - -
04/07:30am 12.0 NW 6 8 1016.3 - 1.0 - Cloudy 10 - - - -
04/07:00am 11.9 NNW 5 8 1015.9 - 1.0 - Partly cloudy 10 - - - -
04/06:30am 11.5 NW 5 6 1015.7 - 1.0 - Partly cloudy 10 - - - -
04/06:00am 10.6 NW 6 7 1015.5 - 1.0 - Mostly clear 10 - - - -
04/05:30am 10.8 WNW 6 7 1015.2 - 1.0 - Partly cloudy 10 - - - -
04/05:00am 10.7 NNW 5 7 1015.0 - 1.0 - - 10 - - - -
04/04:30am 11.6 NW 6 8 1014.7 - 1.0 - Partly cloudy 10 - - - -
04/04:00am 11.4 NW 7 8 1014.7 - 1.0 - Partly cloudy 10 - - - -
04/03:30am 11.7 NW 6 7 1014.6 - 1.0 - Partly cloudy 10 - - - -
04/03:00am 12.6 WNW 6 9 1014.8 - 1.0 - Mostly cloudy 10 - - - -
04/02:30am 13.1 W 13 16 1015.1 - 1.0 - Partly cloudy 10 - - - -
04/02:00am 12.0 WNW 6 7 1014.7 - 1.0 - Partly cloudy 10 - - - -
04/01:30am 11.5 W 5 6 1014.7 - 1.0 - Partly cloudy 10 - - - -
04/01:00am 12.5 WSW 9 12 1014.8 - 1.0 - Partly cloudy 10 - - - -
04/12:30am 12.6 W 7 9 1014.7 - 1.0 - Partly cloudy 10 - - - -
04/12:00am 12.3 WNW 7 8 1014.7 - 1.0 - Mostly cloudy 10 - - - -
 
Date/Time
CST
Temp

°C
Wind Pressure Rain
since 9am
mm
Weather Cloud Vis
km
Sea
Height
m
Swell
Dir
 
Speed
knots
Gust
knots
hPa Trend Height
m
Period
s
Dir
03/11:30pm 11.3 WNW 7 8 1014.8 - 1.0 - - 10 - - - -
03/11:00pm 11.8 WSW 7 8 1014.8 - 1.0 - Partly cloudy 10 - - - -
03/10:30pm 11.8 W 6 8 1014.8 - 1.0 - Partly cloudy 10 - - - -
03/10:00pm 12.4 WSW 9 11 1014.6 - 1.0 - Partly cloudy 10 - - - -
03/09:51pm 12.9 WSW 11 14 1014.5 - 1.0 - Partly cloudy 10 - - - -
03/09:31pm 13.3 W 12 23 1014.6 - 0.8 - Partly cloudy 5 - - - -
03/09:30pm 13.3 W 11 21 1014.7 - 0.8 - Partly cloudy 6 - - - -
03/09:00pm 13.5 W 10 13 1014.3 - 0.8 - Partly cloudy 10 - - - -
03/08:30pm 13.3 WNW 8 10 1014.1 - 0.8 - Partly cloudy 10 - - - -
03/08:00pm 13.3 WSW 7 9 1013.8 - 0.8 - Partly cloudy 10 - - - -
03/07:30pm 13.9 WNW 8 10 1013.2 - 0.8 - Partly cloudy 10 - - - -
03/07:00pm 14.5 W 13 16 1012.8 - 0.8 - Partly cloudy 10 - - - -
03/06:30pm 14.5 W 13 17 1012.3 - 0.8 - Partly cloudy 7 - - - -
03/06:00pm 15.8 WSW 16 22 1011.6 - 0.8 - Cloudy 10 - - - -
03/05:30pm 16.4 WSW 13 17 1011.2 - 0.8 - Partly cloudy 10 - - - -
03/05:00pm 16.8 WSW 15 21 1010.9 - 0.8 - Partly cloudy 10 - - - -
03/04:30pm 17.0 W 15 22 1010.6 - 0.8 - Partly cloudy 10 - - - -
03/04:00pm 16.9 WSW 14 18 1010.2 - 0.8 - Partly cloudy 10 - - - -
03/03:30pm 16.9 SW 16 24 1009.7 - 0.8 - Partly cloudy 10 - - - -
03/03:00pm 17.8 WSW 21 29 1009.3 - 0.8 - Cloudy 10 - - - -
03/02:30pm 18.8 WSW 20 28 1009.0 - 0.8 - Partly cloudy 10 - - - -
03/02:00pm 18.2 WSW 20 27 1008.7 - 0.8 - Partly cloudy 10 - - - -
03/01:30pm 18.2 WSW 21 26 1008.7 - 0.8 - Partly cloudy 10 - - - -
03/01:00pm 18.2 WSW 22 34 1008.6 - 0.8 - Partly cloudy 10 - - - -
03/12:37pm 17.8 WSW 23 33 1008.3 - 0.8 - Partly cloudy 10 - - - -
03/12:30pm 17.8 WSW 21 29 1008.3 - 0.8 - Partly cloudy 10 - - - -
03/12:12pm 17.5 WSW 22 30 1008.5 - 0.8 - Partly cloudy 10 - - - -
03/12:02pm 17.3 WSW 23 33 1008.6 - 0.8 - Partly cloudy 5 - - - -
03/12:00pm 17.0 WSW 24 33 1008.6 - 0.8 Rain Cloudy 5 - - - -
03/11:55am 16.7 W 23 33 1008.5 - 0.8 - Partly cloudy 5 - - - -
03/11:30am 18.3 W 21 31 1008.3 - 0.6 - Partly cloudy 10 - - - -
03/11:22am 18.0 W 20 30 1008.5 - 0.6 - Partly cloudy 10 - - - -
03/11:15am 17.6 W 21 27 1008.5 - 0.6 - Partly cloudy 10 - - - -
03/11:00am 16.7 W 22 32 1008.5 - 0.6 - Partly cloudy 3 - - - -
03/10:46am 18.0 W 21 31 1008.4 - 0.4 - Partly cloudy 5 - - - -
03/10:40am 16.9 W 22 31 1008.3 - 0.4 - Partly cloudy 5 - - - -
03/10:37am 17.3 W 20 31 1008.3 - 0.4 - Partly cloudy 9 - - - -
03/10:30am 18.1 W 20 29 1008.2 - 0.4 - Partly cloudy 10 - - - -
03/10:00am 17.6 W 19 27 1008.0 - 0.4 - Partly cloudy 10 - - - -
03/09:54am 17.5 W 15 26 1008.0 - 0.4 - Partly cloudy 10 - - - -
03/09:30am 16.3 WNW 13 18 1008.1 - 0.2 - Partly cloudy 3 - - - -
03/09:21am 16.8 WNW 13 18 1007.9 - 0.0 - Partly cloudy 5 - - - -
03/09:00am 18.1 W 9 12 1007.7 - 2.8 - Cloudy 10 - - - -
03/08:30am 17.2 W 13 18 1007.6 - 2.8 - Partly cloudy 10 - - - -
03/08:00am 16.8 W 12 19 1007.4 - 2.8 - Partly cloudy 9 - - - -
03/07:30am 16.5 W 13 17 1006.9 - 2.8 - Partly cloudy 10 - - - -
03/07:00am 16.6 W 17 22 1006.4 - 2.8 - Partly cloudy 10 - - - -
03/06:30am 16.7 W 19 24 1006.3 - 2.8 - Partly cloudy 10 - - - -
03/06:29am 16.8 W 19 27 1006.3 - 2.8 - Partly cloudy 10 - - - -
03/06:13am 16.8 WNW 21 31 1006.1 - 2.8 - Partly cloudy 5 - - - -
03/06:04am 17.1 WNW 25 42 1005.8 - 2.8 - Partly cloudy 9 - - - -
03/06:00am 17.2 WNW 24 41 1005.6 - 2.8 Recent precip. Cloudy 10 - - - -
03/05:48am 16.9 WNW 23 36 1005.5 - 2.8 - Partly cloudy 5 - - - -
03/05:30am 16.9 NW 18 29 1005.5 - 2.6 - Partly cloudy 6 - - - -
03/05:28am 16.8 NW 17 29 1005.6 - 2.6 - Partly cloudy 6 - - - -
03/05:01am 16.3 WNW 18 25 1005.8 - 2.6 - Partly cloudy 8 - - - -
03/05:00am 16.3 WNW 18 25 1005.8 - 2.6 - Partly cloudy 8 - - - -
03/04:35am 16.7 NW 21 30 1005.7 - 2.4 - Partly cloudy 5 - - - -
03/04:30am 17.2 NW 21 28 1005.5 - 2.4 - Partly cloudy 10 - - - -
03/04:00am 17.4 NW 20 27 1005.6 - 2.4 - Partly cloudy 10 - - - -
03/03:30am 17.0 NW 19 27 1005.6 - 2.4 - Partly cloudy 10 - - - -
03/03:00am 16.5 NW 17 23 1006.2 - 2.4 - Cloudy 9 - - - -
03/02:30am 16.5 NW 17 22 1006.6 - 2.4 - Cloudy 10 - - - -
03/02:00am 16.3 NW 18 23 1006.7 - 2.4 - Partly cloudy 10 - - - -
03/01:30am 15.9 NW 16 22 1007.0 - 2.4 - Partly cloudy 10 - - - -
03/01:00am 16.2 NW 18 24 1007.9 - 2.4 - Partly cloudy 10 - - - -
03/12:39am 15.8 NW 15 20 1008.2 - 2.4 - Partly cloudy 10 - - - -
03/12:30am 15.6 NW 15 24 1008.3 - 2.4 - Partly cloudy 8 - - - -
03/12:08am 15.8 NW 19 29 1008.6 - 1.8 - Partly cloudy 4 - - - -
03/12:05am 15.9 NW 18 26 1008.6 - 1.6 - Partly cloudy 5 - - - -
03/12:00am 15.8 NW 20 27 1008.7 - 1.6 Recent precip. Cloudy 9 - - - -
 
Date/Time
CST
Temp

°C
Wind Pressure Rain
since 9am
mm
Weather Cloud Vis
km
Sea
Height
m
Swell
Dir
 
Speed
knots
Gust
knots
hPa Trend Height
m
Period
s
Dir
02/11:37pm 15.8 NW 17 22 1008.9 - 1.6 - Partly cloudy 10 - - - -
02/11:30pm 15.7 NW 18 26 1008.9 - 1.6 - Partly cloudy 8 - - - -
02/11:07pm 16.3 NW 20 27 1009.3 - 1.2 - Partly cloudy 5 - - - -
02/11:00pm 16.7 NW 19 25 1009.2 - 1.2 - Partly cloudy 10 - - - -
02/10:30pm 16.4 NW 17 25 1009.5 - 1.2 - Partly cloudy 10 - - - -
02/10:00pm 16.4 NW 17 22 1009.6 - 1.2 - - 10 - - - -
02/09:30pm 16.5 NW 20 27 1009.3 - 1.2 - Partly cloudy 10 - - - -
02/09:00pm 16.4 NW 21 27 1009.4 - 1.2 - - 10 - - - -
02/08:30pm 16.3 NW 20 27 1009.9 - 1.2 - Partly cloudy 10 - - - -
02/08:00pm 16.3 NW 19 26 1010.0 - 1.2 - Partly cloudy 10 - - - -
02/07:30pm 16.4 NW 21 27 1010.1 - 1.2 - Partly cloudy 10 - - - -
02/07:00pm 16.5 NW 19 25 1010.0 - 1.2 - Partly cloudy 10 - - - -
02/06:30pm 16.5 NW 17 24 1009.9 - 1.2 - Partly cloudy 10 - - - -
02/06:00pm 16.6 NW 19 23 1009.8 - 1.2 - Cloudy 10 - - - -
02/05:30pm 16.8 NW 16 22 1009.7 - 1.2 - Partly cloudy 10 - - - -
02/05:00pm 15.8 NW 17 24 1009.5 - 1.2 - Partly cloudy 10 - - - -
02/04:45pm 15.6 NW 17 22 1009.9 - 1.2 - Partly cloudy 10 - - - -
02/04:35pm 15.4 WNW 20 30 1010.0 - 1.2 - Partly cloudy 5 - - - -
02/04:30pm 15.3 WNW 21 30 1010.1 - 1.2 - Partly cloudy 3 - - - -
02/04:29pm 15.3 WNW 20 30 1010.1 - 1.2 - Partly cloudy 3 - - - -
02/04:20pm 16.0 WNW 19 26 1010.2 - 1.0 - Partly cloudy 5 - - - -
02/04:00pm 16.9 WNW 18 24 1010.3 - 1.0 - Partly cloudy 10 - - - -
02/03:34pm 16.3 WNW 20 28 1010.4 - 1.0 - Partly cloudy 10 - - - -
02/03:30pm 16.2 WNW 21 28 1010.6 - 1.0 - Partly cloudy 10 - - - -
02/03:24pm 16.3 WNW 22 32 1010.5 - 1.0 - Partly cloudy 5 - - - -
02/03:00pm 19.4 WNW 19 31 1010.5 - 1.0 - Cloudy 10 - - - -
02/02:30pm 18.7 WNW 24 34 1010.4 - 1.0 - Partly cloudy 10 - - - -
02/02:29pm 18.6 WNW 24 34 1010.3 - 1.0 - Partly cloudy 10 - - - -
02/02:00pm 19.2 WNW 24 31 1010.6 - 1.0 - Partly cloudy 10 - - - -
02/01:54pm 19.7 WNW 21 31 1010.6 - 1.0 - Partly cloudy 10 - - - -
02/01:30pm 19.6 WNW 22 29 1011.0 - 1.0 - Partly cloudy 10 - - - -
02/01:00pm 19.4 WNW 21 30 1011.3 - 1.0 - Partly cloudy 10 - - - -
02/12:30pm 19.8 NW 22 32 1011.5 - 1.0 - Partly cloudy 10 - - - -
02/12:08pm 19.3 WNW 23 34 1011.8 - 1.0 - Partly cloudy 10 - - - -
02/12:00pm 18.7 WNW 23 30 1012.0 - 1.0 Recent precip. Partly cloudy 10 - - - -
02/11:57am 18.5 WNW 22 30 1012.0 - 1.0 - Partly cloudy 10 - - - -
02/11:32am 17.0 NW 16 20 1012.3 - 1.0 - Partly cloudy 10 - - - -
02/11:30am 16.9 NW 16 20 1012.3 - 1.0 - Partly cloudy 10 - - - -
02/11:14am 16.1 NW 13 21 1012.7 - 1.0 - Partly cloudy 5 - - - -
02/11:08am 16.7 NNW 13 18 1012.6 - 0.2 - Partly cloudy 10 - - - -
02/11:00am 16.5 NW 14 20 1012.7 - 0.2 - Partly cloudy 7 - - - -
02/10:45am 16.8 NW 14 19 1012.8 - 0.2 - Partly cloudy 5 - - - -
02/10:30am 17.3 NW 16 22 1012.9 - 0.0 - Partly cloudy 10 - - - -
02/10:00am 16.3 NNW 17 22 1013.2 - 0.0 - Partly cloudy 10 - - - -
02/09:30am 15.4 NNW 16 21 1013.4 - 0.0 - Partly cloudy 10 - - - -
02/09:00am 14.9 NNW 16 20 1013.6 - 0.0 - Mostly clear 10 - - - -
02/08:30am 14.0 NNW 16 20 1013.5 - 0.0 - Partly cloudy 10 - - - -
02/08:00am 13.6 NNW 16 22 1013.6 - 0.0 - Partly cloudy 10 - - - -
02/07:30am 12.6 NW 15 20 1013.4 - 0.0 - Partly cloudy 10 - - - -
02/07:00am 11.7 NW 10 13 1013.5 - 0.0 - - 10 - - - -
02/06:30am 11.4 NW 11 16 1013.3 - 0.0 - - 10 - - - -
02/06:00am 11.1 NW 9 14 1013.4 - 0.0 - - 10 - - - -
02/05:30am 11.6 NW 9 13 1013.3 - 0.0 - Partly cloudy 10 - - - -
02/05:00am 11.2 NNW 8 10 1013.6 - 0.0 - Partly cloudy 10 - - - -
02/04:30am 11.3 NNW 8 11 1013.6 - 0.0 - - 10 - - - -
02/04:00am 11.7 NNW 12 15 1013.7 - 0.0 - - 10 - - - -
02/03:30am 11.6 NNW 11 14 1014.0 - 0.0 - - 10 - - - -
02/03:00am 12.1 NNW 9 12 1014.4 - 0.0 - Partly cloudy 10 - - - -
02/02:30am 13.1 NW 9 11 1015.2 - 0.0 - - 10 - - - -
02/02:00am 12.8 NNW 10 13 1015.2 - 0.0 - - 10 - - - -
02/01:30am 12.3 NNW 9 13 1015.5 - 0.0 - Partly cloudy 10 - - - -
02/01:00am 12.4 NNW 8 11 1015.8 - 0.0 - Partly cloudy 10 - - - -
02/12:30am 12.7 NW 9 11 1016.2 - 0.0 - Partly cloudy 10 - - - -
02/12:00am 13.6 NW 8 14 1016.8 - 0.0 - Cloudy 10 - - - -
 
Date/Time
CST
Temp

°C
Wind Pressure Rain
since 9am
mm
Weather Cloud Vis
km
Sea
Height
m
Swell
Dir
 
Speed
knots
Gust
knots
hPa Trend Height
m
Period
s
Dir
01/11:30pm 13.0 NNW 7 10 1016.8 - 0.0 - Cloudy 10 - - - -

Other Formats:

Comma delimited format used in spreadsheet applications
http://www.bom.gov.au/fwo/IDS60701/IDS60701.95661.axf

JavaScript Object Notation format (JSON) in row-major order
http://www.bom.gov.au/fwo/IDS60701/IDS60701.95661.json